createdAt,value
2023-05-15T00:00:10.665Z,15.52
2023-05-15T00:02:38.860Z,17.05
2023-05-15T00:05:07.908Z,20.50
2023-05-15T00:07:36.009Z,19.00
2023-05-15T00:10:03.470Z,18.23
2023-05-15T00:12:30.647Z,17.75
2023-05-15T00:14:57.762Z,16.77
2023-05-15T00:17:25.838Z,19.58
2023-05-15T00:19:57.549Z,16.75
2023-05-15T00:22:25.302Z,16.00
2023-05-15T00:24:52.824Z,21.30
2023-05-15T00:27:19.955Z,22.05
2023-05-15T00:29:47.095Z,17.38
2023-05-15T00:32:14.211Z,19.98
2023-05-15T00:34:41.333Z,20.67
2023-05-15T00:37:08.559Z,23.70
2023-05-15T00:39:36.389Z,18.80
2023-05-15T00:42:04.702Z,22.10
2023-05-15T00:44:32.215Z,21.48
2023-05-15T00:47:01.556Z,27.17
2023-05-15T00:49:29.844Z,20.17
2023-05-15T00:51:58.158Z,17.05
2023-05-15T00:54:25.553Z,23.15
2023-05-15T00:56:55.702Z,20.90
2023-05-15T00:59:25.911Z,22.33
2023-05-15T01:01:53.168Z,23.90
2023-05-15T01:04:21.931Z,23.83
2023-05-15T01:06:49.406Z,20.23
2023-05-15T01:09:17.748Z,23.20
2023-05-15T01:11:47.444Z,26.48
2023-05-15T01:14:14.548Z,27.45
2023-05-15T01:16:41.730Z,25.00
2023-05-15T01:19:08.875Z,27.55
2023-05-15T01:21:38.511Z,25.67
2023-05-15T01:24:24.656Z,29.17
2023-05-15T01:27:20.450Z,23.15
2023-05-15T01:30:07.892Z,27.02
2023-05-15T01:32:51.044Z,24.23
2023-05-15T01:35:24.313Z,28.50
2023-05-15T01:37:57.460Z,27.15
2023-05-15T01:40:26.359Z,29.63
2023-05-15T01:42:56.159Z,24.88
2023-05-15T01:45:25.422Z,33.00
2023-05-15T01:47:54.471Z,27.15
2023-05-15T01:50:22.168Z,26.98
2023-05-15T01:52:52.408Z,29.08
2023-05-15T01:55:23.028Z,28.00
2023-05-15T01:57:52.190Z,29.92
2023-05-15T02:00:21.085Z,35.78
2023-05-15T02:02:49.655Z,26.00
2023-05-15T02:05:17.977Z,30.70
2023-05-15T02:07:45.906Z,33.72
2023-05-15T02:10:13.762Z,32.95
2023-05-15T02:12:42.461Z,29.98
2023-05-15T02:15:11.469Z,31.00
2023-05-15T02:17:38.894Z,28.75
2023-05-15T02:20:07.650Z,36.45
2023-05-15T02:22:34.750Z,35.08
2023-05-15T02:25:02.294Z,28.85
2023-05-15T02:27:36.497Z,31.80
2023-05-15T02:30:41.449Z,34.40
2023-05-15T02:33:33.132Z,32.10
2023-05-15T02:36:07.551Z,39.78
2023-05-15T02:39:03.837Z,41.67
2023-05-15T02:41:33.251Z,38.70
2023-05-15T02:44:01.508Z,28.48
2023-05-15T02:46:29.275Z,31.50
2023-05-15T02:48:56.926Z,31.67
2023-05-15T02:51:24.014Z,29.75
2023-05-15T02:53:52.179Z,34.97
2023-05-15T02:56:19.222Z,35.05
2023-05-15T02:58:46.301Z,30.13
2023-05-15T03:01:13.496Z,28.73
2023-05-15T03:03:40.697Z,28.17
2023-05-15T03:06:07.809Z,39.38
2023-05-15T03:08:35.042Z,33.70
2023-05-15T03:11:02.117Z,35.30
2023-05-15T03:13:29.272Z,34.85
2023-05-15T03:15:56.404Z,30.27
2023-05-15T03:18:23.433Z,34.00
2023-05-15T03:20:53.024Z,40.10
2023-05-15T03:23:20.123Z,36.70
2023-05-15T03:25:47.349Z,33.03
2023-05-15T03:28:14.456Z,32.58
2023-05-15T03:30:44.421Z,37.92
2023-05-15T03:33:11.563Z,39.83
2023-05-15T03:35:38.707Z,32.83
2023-05-15T03:38:05.978Z,38.78
2023-05-15T03:40:33.519Z,34.05
2023-05-15T03:43:00.621Z,36.55
2023-05-15T03:45:28.078Z,34.20
2023-05-15T03:47:55.404Z,32.10
2023-05-15T03:50:22.640Z,28.38
2023-05-15T03:52:49.714Z,34.15
2023-05-15T03:55:16.867Z,26.20
2023-05-15T03:57:44.051Z,26.85
2023-05-15T04:00:12.115Z,32.10
2023-05-15T04:02:39.559Z,29.73
2023-05-15T04:05:08.288Z,34.80
2023-05-15T04:07:37.366Z,30.45
2023-05-15T04:10:05.676Z,29.85
2023-05-15T04:12:35.681Z,31.20
2023-05-15T04:15:22.765Z,31.85
2023-05-15T04:17:53.686Z,34.25
2023-05-15T04:20:22.810Z,26.38
2023-05-15T04:22:50.660Z,32.83
2023-05-15T04:25:20.198Z,29.25
2023-05-15T04:27:47.450Z,27.92
2023-05-15T04:30:14.696Z,26.77
2023-05-15T04:32:42.400Z,31.15
2023-05-15T04:35:12.124Z,24.33
2023-05-15T04:37:40.519Z,23.40
2023-05-15T04:40:08.715Z,26.45
2023-05-15T04:42:38.851Z,26.58
2023-05-15T04:45:07.902Z,23.90
2023-05-15T04:47:36.166Z,19.45
2023-05-15T04:50:03.941Z,22.25
2023-05-15T04:52:32.220Z,27.73
2023-05-15T04:54:59.340Z,32.35
2023-05-15T04:57:26.755Z,24.80
2023-05-15T04:59:54.091Z,21.85
2023-05-15T05:02:22.650Z,21.98
2023-05-15T05:04:50.147Z,21.98
2023-05-15T05:07:17.706Z,27.42
2023-05-15T05:09:45.100Z,20.67
2023-05-15T05:12:12.222Z,19.27
2023-05-15T05:14:42.092Z,22.92
2023-05-15T05:17:09.427Z,21.58
2023-05-15T05:19:37.327Z,18.73
2023-05-15T05:22:05.773Z,20.08
2023-05-15T05:24:36.281Z,16.90
2023-05-15T05:27:04.396Z,17.75
2023-05-15T05:29:31.754Z,17.42
2023-05-15T05:31:59.179Z,19.30
2023-05-15T05:34:26.456Z,13.18
2023-05-15T05:36:53.629Z,13.90
2023-05-15T05:39:20.903Z,13.65
2023-05-15T05:41:48.009Z,14.30
2023-05-15T05:44:15.494Z,14.32
2023-05-15T05:46:42.887Z,12.32
2023-05-15T05:49:10.067Z,19.70
2023-05-15T05:51:38.596Z,19.73
2023-05-15T05:54:06.376Z,16.58
2023-05-15T05:56:33.745Z,14.00
2023-05-15T05:59:01.972Z,18.85
2023-05-15T06:01:29.485Z,16.30
2023-05-15T06:03:57.558Z,16.60
2023-05-15T06:06:24.966Z,19.33
2023-05-15T06:08:54.154Z,20.75
2023-05-15T06:11:24.984Z,16.13
2023-05-15T06:13:52.720Z,16.42
2023-05-15T06:16:20.016Z,18.20
2023-05-15T06:18:47.241Z,19.13
2023-05-15T06:21:14.430Z,19.23
2023-05-15T06:23:41.588Z,23.20
2023-05-15T06:26:08.852Z,20.15
2023-05-15T06:28:36.462Z,21.38
2023-05-15T06:31:03.899Z,24.95
2023-05-15T06:33:31.380Z,22.75
2023-05-15T06:35:58.594Z,18.65
2023-05-15T06:38:25.847Z,21.45
2023-05-15T06:40:53.070Z,18.70
2023-05-15T06:43:20.162Z,18.30
2023-05-15T06:45:47.306Z,16.48
2023-05-15T06:48:14.499Z,18.48
2023-05-15T06:50:41.626Z,19.42
2023-05-15T06:53:08.696Z,23.48
2023-05-15T06:55:38.090Z,16.20
2023-05-15T06:58:06.374Z,18.13
2023-05-15T07:00:33.814Z,15.63
2023-05-15T07:03:00.959Z,18.70
2023-05-15T07:05:28.136Z,18.50
2023-05-15T07:07:55.359Z,16.85
2023-05-15T07:10:22.705Z,16.30
2023-05-15T07:12:50.135Z,19.25
2023-05-15T07:15:17.671Z,16.08
2023-05-15T07:17:44.944Z,18.45
2023-05-15T07:20:12.266Z,18.50
2023-05-15T07:22:48.345Z,16.20
2023-05-15T07:25:23.973Z,21.70
2023-05-15T07:27:51.574Z,24.90
2023-05-15T07:30:19.379Z,21.40
2023-05-15T07:32:46.603Z,18.35
2023-05-15T07:35:13.966Z,22.85
2023-05-15T07:37:41.469Z,17.60
2023-05-15T07:40:09.112Z,17.92
2023-05-15T07:42:36.740Z,19.02
2023-05-15T07:45:04.485Z,20.48
2023-05-15T07:47:31.644Z,15.88
2023-05-15T07:49:58.770Z,13.63
2023-05-15T07:52:25.988Z,15.90
2023-05-15T07:54:53.082Z,12.48
2023-05-15T07:57:20.696Z,14.20
2023-05-15T07:59:47.793Z,13.48
2023-05-15T08:02:14.962Z,14.45
2023-05-15T08:04:42.120Z,14.40
2023-05-15T08:07:09.308Z,14.32
2023-05-15T08:09:36.810Z,13.05
2023-05-15T08:12:29.902Z,16.42
2023-05-15T08:14:57.146Z,13.60
2023-05-15T08:17:25.566Z,13.15
2023-05-15T08:19:53.025Z,14.73
2023-05-15T08:22:20.158Z,16.10
2023-05-15T08:24:47.377Z,16.38
2023-05-15T08:27:14.970Z,16.88
2023-05-15T08:29:42.135Z,14.48
2023-05-15T08:32:09.332Z,15.05
2023-05-15T08:34:36.700Z,15.15
2023-05-15T08:37:06.599Z,13.40
2023-05-15T08:39:33.880Z,17.75
2023-05-15T08:42:10.911Z,16.75
2023-05-15T08:44:39.462Z,13.68
2023-05-15T08:47:07.752Z,13.48
2023-05-15T08:50:00.692Z,14.73
2023-05-15T08:52:28.707Z,13.93
2023-05-15T08:54:56.197Z,14.73
2023-05-15T08:57:23.546Z,18.67
2023-05-15T08:59:52.792Z,15.40
2023-05-15T09:02:20.810Z,21.30
2023-05-15T09:04:47.911Z,12.05
2023-05-15T09:07:15.925Z,15.52
2023-05-15T09:09:45.045Z,13.80
2023-05-15T09:12:15.335Z,18.25
2023-05-15T09:14:43.412Z,13.90
2023-05-15T09:17:14.059Z,12.82
2023-05-15T09:19:42.278Z,13.85
2023-05-15T09:22:17.776Z,14.07
2023-05-15T09:24:48.296Z,15.00
2023-05-15T09:27:15.558Z,14.90
2023-05-15T09:29:42.780Z,14.98
2023-05-15T09:32:12.829Z,16.73
2023-05-15T09:34:42.028Z,14.68
2023-05-15T09:37:11.027Z,13.32
2023-05-15T09:39:42.948Z,15.73
2023-05-15T09:42:13.709Z,14.88
2023-05-15T09:44:42.923Z,16.77
2023-05-15T09:47:11.990Z,16.00
2023-05-15T09:49:39.647Z,19.23
2023-05-15T09:52:13.764Z,18.92
2023-05-15T09:54:40.883Z,19.02
2023-05-15T09:57:13.666Z,19.85
2023-05-15T09:59:47.845Z,20.70
2023-05-15T10:02:32.657Z,22.73
2023-05-15T10:05:00.225Z,21.95
2023-05-15T10:07:32.224Z,17.48
2023-05-15T10:10:00.429Z,20.08
2023-05-15T10:12:28.969Z,24.50
2023-05-15T10:14:57.273Z,21.60
2023-05-15T10:17:24.882Z,24.15
2023-05-15T10:19:58.323Z,29.35
2023-05-15T10:22:29.779Z,23.05
2023-05-15T10:25:03.486Z,26.98
2023-05-15T10:29:59.382Z,25.08
2023-05-15T10:32:27.361Z,29.75
2023-05-15T10:34:54.781Z,34.35
2023-05-15T10:37:22.376Z,26.58
2023-05-15T10:39:50.789Z,26.55
2023-05-15T10:42:18.064Z,31.40
2023-05-15T10:44:45.256Z,33.55
2023-05-15T10:47:12.618Z,32.05
2023-05-15T10:49:39.997Z,29.02
2023-05-15T10:52:09.279Z,28.45
2023-05-15T10:54:37.584Z,28.83
2023-05-15T10:57:05.429Z,29.05
2023-05-15T10:59:34.917Z,33.83
2023-05-15T11:02:21.413Z,34.95
2023-05-15T11:04:48.805Z,40.58
2023-05-15T11:07:17.961Z,36.53
2023-05-15T11:09:45.167Z,40.83
2023-05-15T11:12:12.864Z,42.95
2023-05-15T11:14:42.392Z,44.38
2023-05-15T11:17:11.742Z,41.58
2023-05-15T11:19:40.730Z,43.80
2023-05-15T11:22:21.750Z,43.95
2023-05-15T11:25:09.467Z,42.30
2023-05-15T11:27:43.886Z,39.92
2023-05-15T11:30:23.058Z,42.72
2023-05-15T11:33:00.159Z,43.22
2023-05-15T11:35:33.611Z,40.35
2023-05-15T11:38:09.711Z,35.08
2023-05-15T11:40:52.888Z,43.75
2023-05-15T11:43:29.458Z,39.63
2023-05-15T11:45:58.759Z,31.95
2023-05-15T11:48:32.158Z,35.00
2023-05-15T11:51:01.554Z,34.05
2023-05-15T11:53:30.111Z,33.63
2023-05-15T11:55:57.264Z,31.23
2023-05-15T11:58:25.912Z,28.15
2023-05-15T12:00:53.823Z,31.20
2023-05-15T12:03:27.483Z,30.67
2023-05-15T12:08:32.569Z,37.53
2023-05-15T12:11:00.786Z,33.27
2023-05-15T12:13:28.370Z,31.40
2023-05-15T12:15:56.020Z,25.95
2023-05-15T12:18:23.767Z,26.02
2023-05-15T12:20:54.476Z,23.65
2023-05-15T12:23:23.945Z,23.48
2023-05-15T12:25:57.777Z,24.77
2023-05-15T12:28:26.652Z,22.40
2023-05-15T12:30:54.606Z,22.10
2023-05-15T12:33:21.933Z,22.20
2023-05-15T12:36:00.868Z,22.05
2023-05-15T12:38:29.288Z,23.98
2023-05-15T12:40:57.233Z,21.10
2023-05-15T12:43:26.284Z,23.45
2023-05-15T12:45:54.776Z,23.88
2023-05-15T12:48:22.280Z,21.10
2023-05-15T12:50:50.112Z,17.92
2023-05-15T12:53:17.737Z,21.52
2023-05-15T12:55:46.818Z,18.30
2023-05-15T12:58:18.798Z,19.48
2023-05-15T13:00:46.745Z,18.05
2023-05-15T13:03:14.276Z,19.63
2023-05-15T13:05:45.575Z,18.48
2023-05-15T13:08:17.817Z,19.77
2023-05-15T13:10:46.130Z,19.95
2023-05-15T13:13:14.055Z,18.38
2023-05-15T13:15:44.807Z,21.48
2023-05-15T13:18:14.214Z,21.83
2023-05-15T13:20:43.452Z,18.58
2023-05-15T13:23:13.368Z,20.95
2023-05-15T13:25:40.759Z,22.60
2023-05-15T13:28:10.536Z,20.40
2023-05-15T13:30:42.176Z,18.85
2023-05-15T13:33:11.838Z,14.50
2023-05-15T13:35:40.336Z,15.73
2023-05-15T13:38:10.348Z,14.85
2023-05-15T13:40:38.785Z,11.13
2023-05-15T13:43:08.762Z,9.23
2023-05-15T13:45:39.076Z,8.65
2023-05-15T13:48:06.558Z,10.52
2023-05-15T13:50:33.855Z,9.10
2023-05-15T13:53:01.046Z,13.18
2023-05-15T13:55:28.247Z,13.02
2023-05-15T13:57:55.365Z,12.10
2023-05-15T14:00:22.542Z,11.73
2023-05-15T14:02:49.786Z,11.90
2023-05-15T14:05:17.332Z,10.73
2023-05-15T14:07:44.948Z,11.82
2023-05-15T14:10:12.135Z,12.63
2023-05-15T14:12:40.022Z,14.88
2023-05-15T14:15:08.069Z,12.18
2023-05-15T14:17:35.354Z,13.75
2023-05-15T14:20:02.913Z,13.43
2023-05-15T14:22:30.105Z,12.43
2023-05-15T14:24:57.249Z,13.32
2023-05-15T14:27:24.404Z,10.60
2023-05-15T14:29:51.960Z,11.40
2023-05-15T14:32:19.201Z,10.75
2023-05-15T14:34:46.568Z,7.18
2023-05-15T14:37:13.803Z,7.60
2023-05-15T14:39:41.023Z,6.22
2023-05-15T14:42:08.290Z,12.00
2023-05-15T14:44:35.391Z,7.18
2023-05-15T14:47:10.869Z,10.73
2023-05-15T14:49:38.394Z,10.82
2023-05-15T14:52:08.948Z,8.38
2023-05-15T14:54:37.539Z,6.63
2023-05-15T14:57:06.570Z,5.95
2023-05-15T14:59:34.100Z,7.90
2023-05-15T15:02:01.445Z,4.32
2023-05-15T15:04:30.614Z,6.70
2023-05-15T15:06:57.813Z,5.43
2023-05-15T15:09:28.398Z,5.97
2023-05-15T15:11:56.457Z,9.10
2023-05-15T15:14:23.592Z,12.45
2023-05-15T15:16:50.976Z,4.72
2023-05-15T15:19:20.092Z,4.63
2023-05-15T15:21:47.987Z,9.73
2023-05-15T15:24:15.527Z,4.85
2023-05-15T15:26:42.660Z,4.70
2023-05-15T15:29:09.736Z,4.25
2023-05-15T15:31:37.721Z,10.77
2023-05-15T15:34:05.869Z,6.00
2023-05-15T15:36:33.881Z,4.00
2023-05-15T15:39:01.462Z,5.80
2023-05-15T15:41:30.757Z,4.72
2023-05-15T15:43:57.876Z,5.07
2023-05-15T15:46:25.093Z,2.47
2023-05-15T15:48:52.260Z,3.75
2023-05-15T15:51:19.283Z,7.40
2023-05-15T15:53:47.749Z,3.22
2023-05-15T15:56:14.887Z,4.90
2023-05-15T15:58:42.005Z,2.55
2023-05-15T16:01:09.298Z,4.20
2023-05-15T16:03:37.373Z,6.13
2023-05-15T16:06:05.122Z,5.97
2023-05-15T16:08:32.412Z,3.45
2023-05-15T16:10:59.552Z,6.25
2023-05-15T16:13:26.709Z,4.15
2023-05-15T16:15:53.844Z,5.00
2023-05-15T16:18:21.313Z,6.47
2023-05-15T16:20:48.568Z,9.90
2023-05-15T16:23:16.232Z,6.22
2023-05-15T16:25:44.651Z,8.65
2023-05-15T16:28:12.132Z,4.97
2023-05-15T16:30:48.984Z,4.95
2023-05-15T16:33:19.876Z,3.72
2023-05-15T16:35:47.282Z,4.72
2023-05-15T16:38:14.758Z,6.03
2023-05-15T16:40:41.899Z,3.70
2023-05-15T16:43:09.096Z,7.15
2023-05-15T16:45:37.459Z,4.90
2023-05-15T16:48:05.489Z,5.05
2023-05-15T16:50:36.269Z,5.45
2023-05-15T16:53:04.891Z,3.35
2023-05-15T16:55:32.196Z,2.92
2023-05-15T16:57:59.345Z,4.10
2023-05-15T17:00:26.916Z,3.13
2023-05-15T17:02:54.875Z,2.95
2023-05-15T17:05:22.253Z,2.75
2023-05-15T17:07:49.458Z,7.40
2023-05-15T17:10:16.596Z,3.13
2023-05-15T17:12:43.984Z,7.85
2023-05-15T17:15:11.717Z,3.58
2023-05-15T17:17:39.006Z,2.38
2023-05-15T17:20:07.457Z,3.13
2023-05-15T17:22:34.876Z,3.05
2023-05-15T17:25:02.143Z,5.55
2023-05-15T17:27:29.551Z,4.00
2023-05-15T17:29:57.022Z,2.85
2023-05-15T17:32:24.216Z,6.68
2023-05-15T17:34:51.535Z,3.85
2023-05-15T17:37:18.874Z,5.00
2023-05-15T17:39:46.143Z,3.33
2023-05-15T17:42:13.267Z,5.07
2023-05-15T17:44:40.405Z,7.85
2023-05-15T17:47:09.768Z,5.93
2023-05-15T17:49:38.396Z,3.55
2023-05-15T17:52:07.140Z,7.50
2023-05-15T17:54:34.774Z,9.57
2023-05-15T17:57:02.578Z,4.82
2023-05-15T17:59:31.152Z,14.13
2023-05-15T18:01:58.606Z,10.38
2023-05-15T18:04:26.065Z,12.13
2023-05-15T18:06:53.308Z,9.18
2023-05-15T18:09:24.825Z,17.58
2023-05-15T18:11:52.233Z,12.05
2023-05-15T18:14:19.433Z,8.45
2023-05-15T18:16:46.559Z,20.23
2023-05-15T18:19:13.829Z,8.05
2023-05-15T18:21:41.062Z,9.23
2023-05-15T18:24:08.258Z,9.55
2023-05-15T18:26:36.222Z,13.27
2023-05-15T18:29:03.586Z,6.90
2023-05-15T18:31:30.795Z,12.23
2023-05-15T18:33:57.977Z,10.15
2023-05-15T18:36:25.091Z,6.65
2023-05-15T18:38:52.271Z,7.40
2023-05-15T18:41:19.341Z,7.47
2023-05-15T18:43:46.511Z,4.50
2023-05-15T18:46:13.678Z,5.45
2023-05-15T18:48:41.066Z,11.13
2023-05-15T18:51:09.652Z,6.20
2023-05-15T18:53:37.588Z,2.97
2023-05-15T18:56:05.067Z,6.10
2023-05-15T18:58:32.221Z,3.72
2023-05-15T19:01:00.115Z,5.00
2023-05-15T19:03:27.443Z,4.45
2023-05-15T19:05:54.584Z,3.72
2023-05-15T19:08:21.724Z,1.45
2023-05-15T19:10:49.156Z,6.20
2023-05-15T19:13:16.353Z,2.63
2023-05-15T19:15:53.129Z,3.28
2023-05-15T19:18:20.340Z,6.43
2023-05-15T19:20:52.018Z,2.20
2023-05-15T19:23:20.701Z,2.55
2023-05-15T19:25:48.020Z,1.73
2023-05-15T19:28:15.155Z,1.08
2023-05-15T19:30:42.637Z,2.72
2023-05-15T19:33:09.831Z,1.10
2023-05-15T19:35:37.906Z,2.47
2023-05-15T19:38:05.552Z,3.50
2023-05-15T19:40:34.771Z,4.93
2023-05-15T19:43:02.382Z,4.72
2023-05-15T19:45:30.455Z,2.13
2023-05-15T19:47:58.980Z,3.42
2023-05-15T19:50:26.783Z,2.78
2023-05-15T19:52:54.043Z,2.13
2023-05-15T19:55:21.439Z,2.50
2023-05-15T19:57:48.645Z,5.43
2023-05-15T20:00:16.050Z,1.67
2023-05-15T20:02:43.297Z,3.55
2023-05-15T20:05:10.451Z,2.42
2023-05-15T20:07:38.353Z,3.28
2023-05-15T20:10:06.519Z,2.50
2023-05-15T20:12:33.699Z,4.80
2023-05-15T20:15:00.859Z,3.60
2023-05-15T20:17:28.040Z,5.25
2023-05-15T20:19:58.056Z,2.60
2023-05-15T20:22:25.193Z,1.23
2023-05-15T20:24:52.323Z,6.45
2023-05-15T20:27:19.531Z,3.92
2023-05-15T20:29:46.869Z,7.22
2023-05-15T20:32:13.988Z,4.65
2023-05-15T20:34:46.663Z,8.10
2023-05-15T20:37:14.025Z,3.97
2023-05-15T20:39:41.237Z,4.53
2023-05-15T20:42:08.410Z,4.38
2023-05-15T20:44:37.389Z,4.40
2023-05-15T20:47:06.126Z,8.85
2023-05-15T20:49:33.458Z,3.15
2023-05-15T20:52:00.857Z,8.35
2023-05-15T20:54:28.000Z,6.75
2023-05-15T20:56:55.180Z,5.05
2023-05-15T20:59:22.235Z,3.38
2023-05-15T21:01:49.371Z,8.50
2023-05-15T21:04:16.580Z,5.97
2023-05-15T21:06:43.739Z,3.05
2023-05-15T21:09:10.905Z,5.57
2023-05-15T21:11:38.041Z,5.13
2023-05-15T21:14:06.317Z,7.93
2023-05-15T21:16:33.658Z,4.43
2023-05-15T21:19:01.328Z,6.32
2023-05-15T21:21:28.423Z,12.23
2023-05-15T21:23:55.514Z,5.43
2023-05-15T21:26:22.636Z,5.70
2023-05-15T21:28:49.877Z,6.53
2023-05-15T21:31:16.964Z,10.93
2023-05-15T21:33:44.486Z,4.00
2023-05-15T21:36:11.828Z,8.70
2023-05-15T21:38:38.922Z,8.65
2023-05-15T21:41:06.524Z,12.52
2023-05-15T21:43:33.689Z,7.80
2023-05-15T21:46:00.915Z,7.35
2023-05-15T21:48:28.057Z,9.35
2023-05-15T21:50:56.664Z,10.45
2023-05-15T21:53:26.926Z,7.80
2023-05-15T21:56:01.118Z,5.78
2023-05-15T21:58:28.803Z,5.68
2023-05-15T22:00:56.177Z,9.52
2023-05-15T22:03:23.675Z,5.85
2023-05-15T22:05:52.793Z,8.70
2023-05-15T22:08:20.433Z,18.90
2023-05-15T22:10:50.591Z,5.40
2023-05-15T22:13:17.759Z,9.50
2023-05-15T22:15:44.858Z,6.82
2023-05-15T22:18:13.013Z,7.72
2023-05-15T22:20:40.080Z,17.27
2023-05-15T22:23:07.942Z,7.78
2023-05-15T22:25:35.074Z,10.68
2023-05-15T22:28:02.173Z,12.82
2023-05-15T22:30:29.465Z,6.80
2023-05-15T22:32:56.757Z,6.18
2023-05-15T22:35:24.075Z,5.07
2023-05-15T22:37:51.148Z,9.02
2023-05-15T22:40:18.877Z,8.52
2023-05-15T22:42:50.150Z,6.28
2023-05-15T22:45:18.584Z,10.73
2023-05-15T22:47:46.150Z,9.98
2023-05-15T22:50:14.223Z,10.52
2023-05-15T22:52:41.342Z,5.40
2023-05-15T22:55:10.376Z,10.77
2023-05-15T22:57:37.459Z,6.80
2023-05-15T23:00:07.124Z,16.35
2023-05-15T23:02:34.859Z,13.40
2023-05-15T23:05:02.108Z,6.78
2023-05-15T23:07:29.201Z,8.05
2023-05-15T23:09:56.388Z,11.02
2023-05-15T23:12:23.468Z,14.35
2023-05-15T23:14:50.645Z,6.65
2023-05-15T23:17:17.808Z,13.07
2023-05-15T23:19:44.906Z,5.88
2023-05-15T23:22:12.366Z,7.35
2023-05-15T23:24:39.440Z,8.93
2023-05-15T23:27:07.894Z,6.32
2023-05-15T23:29:36.078Z,6.72
2023-05-15T23:32:03.554Z,9.57
2023-05-15T23:34:30.768Z,7.93
2023-05-15T23:36:57.916Z,7.30
2023-05-15T23:39:25.019Z,10.88
2023-05-15T23:41:52.069Z,14.82
2023-05-15T23:44:19.164Z,9.45
2023-05-15T23:46:46.319Z,4.18
2023-05-15T23:49:13.664Z,14.38
2023-05-15T23:51:40.906Z,11.43
2023-05-15T23:54:07.940Z,4.05
2023-05-15T23:56:35.165Z,10.27
2023-05-15T23:59:02.258Z,5.50
